createdAt,value
2023-02-13T00:00:54.587Z,-4.71
2023-02-13T00:05:56.817Z,-4.66
2023-02-13T00:10:59.208Z,-4.59
2023-02-13T00:16:03.809Z,-4.54
2023-02-13T00:21:12.142Z,-4.44
2023-02-13T00:26:16.904Z,-4.46
2023-02-13T00:31:21.893Z,-4.43
2023-02-13T00:36:24.714Z,-4.40
2023-02-13T00:41:26.853Z,-4.34
2023-02-13T00:46:28.936Z,-4.31
2023-02-13T00:51:31.204Z,-4.28
2023-02-13T00:56:33.865Z,-4.28
2023-02-13T01:01:35.934Z,-4.29
2023-02-13T01:06:38.039Z,-4.33
2023-02-13T01:11:41.150Z,-4.58
2023-02-13T01:16:43.322Z,-4.64
2023-02-13T01:21:45.426Z,-4.46
2023-02-13T01:26:47.447Z,-4.44
2023-02-13T01:31:49.655Z,-4.33
2023-02-13T01:36:52.502Z,-4.55
2023-02-13T01:41:55.733Z,-4.27
2023-02-13T01:46:58.078Z,-4.18
2023-02-13T01:52:00.478Z,-4.09
2023-02-13T01:57:26.358Z,-4.03
2023-02-13T02:02:31.773Z,-4.15
2023-02-13T02:07:40.227Z,-4.14
2023-02-13T02:12:48.041Z,-4.07
2023-02-13T02:17:53.316Z,-4.17
2023-02-13T02:23:09.253Z,-4.06
2023-02-13T02:28:32.909Z,-4.09
2023-02-13T02:33:50.189Z,-4.17
2023-02-13T02:39:22.942Z,-4.13
2023-02-13T02:44:27.959Z,-3.94
2023-02-13T02:49:54.589Z,-4.09
2023-02-13T02:55:16.708Z,-4.00
2023-02-13T03:00:47.868Z,-4.18
2023-02-13T03:06:10.933Z,-3.97
2023-02-13T03:11:31.495Z,-3.92
2023-02-13T03:16:51.981Z,-3.72
2023-02-13T03:22:19.797Z,-3.77
2023-02-13T03:27:48.866Z,-3.84
2023-02-13T03:33:16.512Z,-4.00
2023-02-13T03:38:30.251Z,-3.83
2023-02-13T03:43:44.450Z,-3.88
2023-02-13T03:49:06.479Z,-3.82
2023-02-13T03:54:19.828Z,-3.60
2023-02-13T03:59:33.947Z,-3.55
2023-02-13T04:04:59.308Z,-3.56
2023-02-13T04:10:07.179Z,-3.52
2023-02-13T04:15:21.177Z,-3.41
2023-02-13T04:20:28.728Z,-3.34
2023-02-13T04:25:30.782Z,-3.29
2023-02-13T04:30:33.640Z,-3.21
2023-02-13T04:35:35.776Z,-3.11
2023-02-13T04:40:37.815Z,-3.04
2023-02-13T04:45:39.892Z,-2.98
2023-02-13T04:50:42.018Z,-2.95
2023-02-13T04:55:44.105Z,-2.91
2023-02-13T05:00:46.154Z,-2.79
2023-02-13T05:05:49.526Z,-2.68
2023-02-13T05:10:51.578Z,-2.62
2023-02-13T05:15:53.697Z,-2.46
2023-02-13T05:21:14.801Z,-2.60
2023-02-13T05:26:16.866Z,-2.46
2023-02-13T05:31:19.083Z,-2.46
2023-02-13T05:36:21.247Z,-2.33
2023-02-13T05:41:23.248Z,-2.38
2023-02-13T05:46:25.518Z,-2.44
2023-02-13T05:51:27.622Z,-2.43
2023-02-13T05:56:29.692Z,-2.26
2023-02-13T06:01:31.905Z,-2.32
2023-02-13T06:06:34.038Z,-2.22
2023-02-13T06:11:36.135Z,-2.11
2023-02-13T06:16:38.148Z,-2.13
2023-02-13T06:21:40.282Z,-2.01
2023-02-13T06:26:42.305Z,-1.95
2023-02-13T06:31:44.505Z,-1.83
2023-02-13T06:36:46.515Z,-1.74
2023-02-13T06:41:48.538Z,-1.60
2023-02-13T06:46:50.632Z,-1.52
2023-02-13T06:51:52.653Z,-1.38
2023-02-13T06:56:54.676Z,-1.42
2023-02-13T07:01:56.715Z,-1.41
2023-02-13T07:06:58.884Z,-1.32
2023-02-13T07:12:07.503Z,-1.30
2023-02-13T07:17:11.238Z,-1.36
2023-02-13T07:22:13.462Z,-1.24
2023-02-13T07:27:15.526Z,-1.15
2023-02-13T07:32:17.565Z,-1.02
2023-02-13T07:37:19.593Z,-0.84
2023-02-13T07:42:21.647Z,-0.64
2023-02-13T07:47:23.721Z,-0.55
2023-02-13T07:52:27.816Z,-0.41
2023-02-13T07:57:31.671Z,-0.27
2023-02-13T08:02:33.721Z,-0.17
2023-02-13T08:07:36.003Z,-0.08
2023-02-13T08:12:38.280Z,0.03
2023-02-13T08:17:40.355Z,0.17
2023-02-13T08:22:43.035Z,0.21
2023-02-13T08:27:45.042Z,0.19
2023-02-13T08:32:54.117Z,0.08
2023-02-13T08:37:56.672Z,0.13
2023-02-13T08:43:06.367Z,0.30
2023-02-13T08:48:08.394Z,0.34
2023-02-13T08:53:11.475Z,0.50
2023-02-13T08:58:13.632Z,0.49
2023-02-13T09:03:16.084Z,0.60
2023-02-13T09:08:19.023Z,0.61
2023-02-13T09:13:21.158Z,0.59
2023-02-13T09:18:23.383Z,0.57
2023-02-13T09:23:25.479Z,0.63
2023-02-13T09:28:27.769Z,0.60
2023-02-13T09:33:29.846Z,0.86
2023-02-13T09:38:31.917Z,1.01
2023-02-13T09:43:41.538Z,1.37
2023-02-13T09:48:48.438Z,1.70
2023-02-13T09:53:55.215Z,1.91
2023-02-13T09:59:23.566Z,2.03
2023-02-13T10:04:31.845Z,1.92
2023-02-13T10:09:33.932Z,1.95
2023-02-13T10:15:01.654Z,1.98
2023-02-13T10:20:32.672Z,1.89
2023-02-13T10:25:58.327Z,2.03
2023-02-13T10:31:10.433Z,1.95
2023-02-13T10:36:12.519Z,1.91
2023-02-13T10:41:14.475Z,2.01
2023-02-13T10:46:32.764Z,2.23
2023-02-13T10:52:05.577Z,2.25
2023-02-13T10:57:07.583Z,2.19
2023-02-13T11:02:12.566Z,2.29
2023-02-13T11:07:19.313Z,2.33
2023-02-13T11:12:30.501Z,2.50
2023-02-13T11:17:37.059Z,2.49
2023-02-13T11:22:42.864Z,2.43
2023-02-13T11:27:46.405Z,2.46
2023-02-13T11:32:59.470Z,2.59
2023-02-13T11:38:10.688Z,2.64
2023-02-13T11:43:27.138Z,2.55
2023-02-13T11:48:29.240Z,2.49
2023-02-13T11:53:40.057Z,2.75
2023-02-13T11:58:42.567Z,2.73
2023-02-13T12:03:44.735Z,2.86
2023-02-13T12:08:49.564Z,2.96
2023-02-13T12:13:52.611Z,2.89
2023-02-13T12:18:57.618Z,2.92
2023-02-13T12:24:08.943Z,2.91
2023-02-13T12:29:58.766Z,2.87
2023-02-13T12:35:16.050Z,2.77
2023-02-13T12:40:26.787Z,2.76
2023-02-13T12:45:41.332Z,2.88
2023-02-13T12:51:01.769Z,2.90
2023-02-13T12:56:14.115Z,2.76
2023-02-13T13:01:34.174Z,2.77
2023-02-13T13:06:42.182Z,2.72
2023-02-13T13:11:50.569Z,2.77
2023-02-13T13:17:04.861Z,2.73
2023-02-13T13:22:18.347Z,2.73
2023-02-13T13:27:35.695Z,2.80
2023-02-13T13:32:38.968Z,2.68
2023-02-13T13:38:06.773Z,2.76
2023-02-13T13:44:00.238Z,2.81
2023-02-13T13:49:29.908Z,2.75
2023-02-13T13:54:36.032Z,2.62
2023-02-13T13:59:38.089Z,2.52
2023-02-13T14:04:43.701Z,2.52
2023-02-13T14:09:46.320Z,2.50
2023-02-13T14:14:48.415Z,2.36
2023-02-13T14:19:53.393Z,2.11
2023-02-13T14:25:01.713Z,2.19
2023-02-13T14:30:06.931Z,2.18
2023-02-13T14:35:26.401Z,2.17
2023-02-13T14:40:48.288Z,2.24
2023-02-13T14:46:08.628Z,2.37
2023-02-13T14:51:28.862Z,2.16
2023-02-13T14:56:32.144Z,2.01
2023-02-13T15:01:40.348Z,2.08
2023-02-13T15:06:44.523Z,2.15
2023-02-13T15:11:47.523Z,2.11
2023-02-13T15:16:58.028Z,2.21
2023-02-13T15:22:02.306Z,2.20
2023-02-13T15:27:07.240Z,2.17
2023-02-13T15:32:21.273Z,2.25
2023-02-13T15:37:27.638Z,2.22
2023-02-13T15:42:29.828Z,2.15
2023-02-13T15:47:34.186Z,2.14
2023-02-13T15:52:39.323Z,2.04
2023-02-13T15:57:41.616Z,2.13
2023-02-13T16:02:47.788Z,2.15
2023-02-13T16:07:57.800Z,2.10
2023-02-13T16:13:03.559Z,2.08
2023-02-13T16:18:18.276Z,2.16
2023-02-13T16:23:21.266Z,2.11
2023-02-13T16:28:25.840Z,2.21
2023-02-13T16:33:32.558Z,2.27
2023-02-13T16:38:48.999Z,2.35
2023-02-13T16:43:55.783Z,2.30
2023-02-13T16:48:57.790Z,2.39
2023-02-13T16:54:05.250Z,2.53
2023-02-13T16:59:30.808Z,2.64
2023-02-13T17:04:32.897Z,2.60
2023-02-13T17:09:34.980Z,2.64
2023-02-13T17:14:37.036Z,2.67
2023-02-13T17:19:39.200Z,2.69
2023-02-13T17:24:41.290Z,2.82
2023-02-13T17:29:43.513Z,2.84
2023-02-13T17:34:48.809Z,2.83
2023-02-13T17:39:51.856Z,2.88
2023-02-13T17:44:55.792Z,2.92
2023-02-13T17:50:08.535Z,2.88
2023-02-13T17:55:32.379Z,2.95
2023-02-13T18:00:35.586Z,2.74
2023-02-13T18:05:37.807Z,2.72
2023-02-13T18:10:40.160Z,2.69
2023-02-13T18:15:44.315Z,2.78
2023-02-13T18:20:46.883Z,2.72
2023-02-13T18:25:48.992Z,2.78
2023-02-13T18:30:51.093Z,2.80
2023-02-13T18:35:59.020Z,2.89
2023-02-13T18:41:02.126Z,2.82
2023-02-13T18:46:05.006Z,2.76
2023-02-13T18:51:07.229Z,2.80
2023-02-13T18:56:10.652Z,2.82
2023-02-13T19:01:16.571Z,2.87
2023-02-13T19:06:22.332Z,2.86
2023-02-13T19:11:25.077Z,2.80
2023-02-13T19:16:29.142Z,2.84
2023-02-13T19:21:33.286Z,2.86
2023-02-13T19:26:36.028Z,2.87
2023-02-13T19:31:38.400Z,2.90
2023-02-13T19:36:40.555Z,2.89
2023-02-13T19:41:44.202Z,2.86
2023-02-13T19:46:46.348Z,2.80
2023-02-13T19:51:48.573Z,2.93
2023-02-13T19:56:50.628Z,3.02
2023-02-13T20:01:52.760Z,3.04
2023-02-13T20:06:58.479Z,3.10
2023-02-13T20:12:00.644Z,3.15
2023-02-13T20:17:03.276Z,3.23
2023-02-13T20:22:05.377Z,3.29
2023-02-13T20:27:07.829Z,3.31
2023-02-13T20:32:10.654Z,3.36
2023-02-13T20:37:16.403Z,3.39
2023-02-13T20:42:18.460Z,3.40
2023-02-13T20:47:20.659Z,3.41
2023-02-13T20:52:22.747Z,3.42
2023-02-13T20:57:24.774Z,3.41
2023-02-13T21:02:26.942Z,3.39
2023-02-13T21:07:31.644Z,3.34
2023-02-13T21:12:34.916Z,3.37
2023-02-13T21:17:36.956Z,3.39
2023-02-13T21:22:39.981Z,3.42
2023-02-13T21:27:42.282Z,3.45
2023-02-13T21:32:44.482Z,3.47
2023-02-13T21:37:46.514Z,3.43
2023-02-13T21:42:52.530Z,3.46
2023-02-13T21:47:56.598Z,3.42
2023-02-13T21:52:58.795Z,3.41
2023-02-13T21:58:00.858Z,3.38
2023-02-13T22:03:02.923Z,3.37
2023-02-13T22:08:11.024Z,3.22
2023-02-13T22:13:13.041Z,3.30
2023-02-13T22:18:15.295Z,3.22
2023-02-13T22:23:17.334Z,3.03
2023-02-13T22:28:19.390Z,3.14
2023-02-13T22:33:22.333Z,3.17
2023-02-13T22:38:24.387Z,3.10
2023-02-13T22:43:26.460Z,3.13
2023-02-13T22:48:28.495Z,3.17
2023-02-13T22:53:30.816Z,3.15
2023-02-13T22:58:32.928Z,3.22
2023-02-13T23:03:34.953Z,3.21
2023-02-13T23:08:38.470Z,3.25
2023-02-13T23:13:40.503Z,3.27
2023-02-13T23:18:44.797Z,3.24
2023-02-13T23:23:46.999Z,3.25
2023-02-13T23:28:49.096Z,3.26
2023-02-13T23:33:51.145Z,3.26
2023-02-13T23:38:53.244Z,3.26
2023-02-13T23:43:55.305Z,3.26
2023-02-13T23:48:57.505Z,3.25
2023-02-13T23:54:00.605Z,3.23
2023-02-13T23:59:02.654Z,3.23
